createdAt,value
2018-03-02T00:00:32.287Z,29.77
2018-03-02T00:03:00.399Z,30.23
2018-03-02T00:05:28.549Z,30.27
2018-03-02T00:07:56.643Z,26.70
2018-03-02T00:10:24.744Z,32.80
2018-03-02T00:12:52.858Z,35.07
2018-03-02T00:15:20.971Z,34.57
2018-03-02T00:17:49.084Z,36.80
2018-03-02T00:20:17.218Z,40.43
2018-03-02T00:22:45.656Z,34.03
2018-03-02T00:25:13.773Z,32.60
2018-03-02T00:27:41.894Z,32.70
2018-03-02T00:30:10.215Z,34.37
2018-03-02T00:32:38.352Z,31.60
2018-03-02T00:35:06.466Z,38.03
2018-03-02T00:37:34.596Z,30.50
2018-03-02T00:40:02.728Z,34.93
2018-03-02T00:42:30.858Z,33.30
2018-03-02T00:44:58.976Z,39.90
2018-03-02T00:47:27.079Z,37.63
2018-03-02T00:49:55.211Z,38.60
2018-03-02T00:52:23.308Z,35.73
2018-03-02T00:54:51.422Z,37.87
2018-03-02T00:57:22.646Z,37.30
2018-03-02T00:59:50.791Z,37.43
2018-03-02T01:02:18.914Z,30.47
2018-03-02T01:04:47.023Z,37.73
2018-03-02T01:07:15.182Z,38.23
2018-03-02T01:09:43.298Z,36.63
2018-03-02T01:12:11.409Z,40.13
2018-03-02T01:14:39.522Z,35.63
2018-03-02T01:17:07.631Z,37.07
2018-03-02T01:19:35.739Z,36.00
2018-03-02T01:22:03.859Z,39.57
2018-03-02T01:24:31.981Z,35.47
2018-03-02T01:27:00.094Z,33.90
2018-03-02T01:29:28.224Z,41.67
2018-03-02T01:31:56.335Z,37.30
2018-03-02T01:34:24.461Z,39.53
2018-03-02T01:36:52.604Z,44.80
2018-03-02T01:39:20.699Z,38.33
2018-03-02T01:41:48.819Z,40.80
2018-03-02T01:44:16.953Z,38.27
2018-03-02T01:46:45.060Z,35.97
2018-03-02T01:49:13.169Z,37.50
2018-03-02T01:51:47.936Z,39.40
2018-03-02T01:54:16.037Z,38.37
2018-03-02T01:56:44.143Z,39.80
2018-03-02T01:59:12.260Z,35.83
2018-03-02T02:01:40.366Z,41.57
2018-03-02T02:04:08.497Z,40.83
2018-03-02T02:06:36.599Z,39.87
2018-03-02T02:09:05.603Z,32.97
2018-03-02T02:11:33.729Z,33.93
2018-03-02T02:14:01.837Z,37.60
2018-03-02T02:16:29.964Z,37.13
2018-03-02T02:18:58.059Z,37.43
2018-03-02T02:21:26.163Z,41.10
2018-03-02T02:23:54.296Z,40.57
2018-03-02T02:26:22.398Z,40.03
2018-03-02T02:28:50.516Z,43.63
2018-03-02T02:31:18.640Z,46.03
2018-03-02T02:33:46.735Z,42.53
2018-03-02T02:36:14.843Z,41.10
2018-03-02T02:38:42.988Z,44.67
2018-03-02T02:41:11.183Z,43.30
2018-03-02T02:43:39.314Z,37.53
2018-03-02T02:46:07.431Z,40.33
2018-03-02T02:48:35.531Z,40.63
2018-03-02T02:51:03.634Z,43.90
2018-03-02T02:53:31.769Z,49.47
2018-03-02T02:55:59.875Z,45.13
2018-03-02T02:58:27.982Z,39.70
2018-03-02T03:00:56.122Z,46.77
2018-03-02T03:03:24.223Z,41.33
2018-03-02T03:05:52.332Z,44.27
2018-03-02T03:08:20.443Z,43.37
2018-03-02T03:10:48.554Z,40.13
2018-03-02T03:13:16.673Z,46.00
2018-03-02T03:15:44.793Z,43.63
2018-03-02T03:18:12.933Z,42.93
2018-03-02T03:20:41.026Z,43.97
2018-03-02T03:23:09.143Z,40.70
2018-03-02T03:25:37.278Z,40.97
2018-03-02T03:28:05.385Z,45.30
2018-03-02T03:30:33.503Z,43.77
2018-03-02T03:33:01.625Z,45.23
2018-03-02T03:35:29.831Z,42.77
2018-03-02T03:37:57.936Z,43.37
2018-03-02T03:40:26.060Z,40.40
2018-03-02T03:42:54.214Z,45.30
2018-03-02T03:45:22.342Z,40.13
2018-03-02T03:47:50.464Z,43.03
2018-03-02T03:50:18.605Z,50.87
2018-03-02T03:52:46.750Z,49.50
2018-03-02T03:55:14.858Z,47.43
2018-03-02T03:57:42.990Z,45.47
2018-03-02T04:00:11.121Z,45.87
2018-03-02T04:02:39.224Z,45.77
2018-03-02T04:05:08.237Z,41.63
2018-03-02T04:07:36.438Z,42.70
2018-03-02T04:10:04.501Z,41.33
2018-03-02T04:12:32.615Z,42.30
2018-03-02T04:15:00.745Z,44.17
2018-03-02T04:17:28.864Z,43.90
2018-03-02T04:19:57.000Z,42.23
2018-03-02T04:22:25.122Z,44.73
2018-03-02T04:24:53.244Z,48.73
2018-03-02T04:27:21.363Z,46.13
2018-03-02T04:29:49.501Z,41.97
2018-03-02T04:32:17.625Z,54.33
2018-03-02T04:34:45.764Z,44.97
2018-03-02T04:37:13.900Z,49.43
2018-03-02T04:39:41.995Z,47.17
2018-03-02T04:42:10.107Z,48.07
2018-03-02T04:44:38.238Z,49.07
2018-03-02T04:47:06.339Z,47.70
2018-03-02T04:49:34.462Z,46.67
2018-03-02T04:52:02.577Z,46.37
2018-03-02T04:54:30.719Z,48.63
2018-03-02T04:56:58.842Z,48.17
2018-03-02T04:59:26.946Z,47.87
2018-03-02T05:01:55.076Z,47.47
2018-03-02T05:04:23.212Z,48.90
2018-03-02T05:06:51.336Z,46.03
2018-03-02T05:09:19.541Z,43.97
2018-03-02T05:11:47.671Z,46.73
2018-03-02T05:14:15.789Z,51.43
2018-03-02T05:16:43.902Z,45.40
2018-03-02T05:19:12.060Z,49.90
2018-03-02T05:21:40.157Z,45.70
2018-03-02T05:24:08.263Z,46.60
2018-03-02T05:26:36.387Z,44.10
2018-03-02T05:29:04.499Z,45.37
2018-03-02T05:31:32.636Z,49.20
2018-03-02T05:34:00.749Z,49.60
2018-03-02T05:36:28.880Z,53.30
2018-03-02T05:38:56.993Z,50.73
2018-03-02T05:41:25.125Z,49.57
2018-03-02T05:43:53.249Z,51.10
2018-03-02T05:46:21.355Z,52.57
2018-03-02T05:48:49.494Z,51.17
2018-03-02T05:51:17.618Z,49.83
2018-03-02T05:53:45.749Z,50.43
2018-03-02T05:56:13.875Z,49.37
2018-03-02T05:58:41.992Z,52.83
2018-03-02T06:01:10.120Z,49.97
2018-03-02T06:03:38.244Z,46.27
2018-03-02T06:06:06.372Z,51.77
2018-03-02T06:08:34.501Z,52.03
2018-03-02T06:11:02.625Z,48.57
2018-03-02T06:13:30.741Z,54.83
2018-03-02T06:15:58.885Z,52.13
2018-03-02T06:18:27.040Z,49.53
2018-03-02T06:20:55.157Z,55.40
2018-03-02T06:23:23.312Z,55.50
2018-03-02T06:25:51.437Z,55.53
2018-03-02T06:28:19.585Z,50.47
2018-03-02T06:30:47.719Z,60.77
2018-03-02T06:33:15.839Z,52.90
2018-03-02T06:35:43.950Z,49.93
2018-03-02T06:38:12.081Z,57.63
2018-03-02T06:40:40.603Z,51.50
2018-03-02T06:43:08.731Z,57.03
2018-03-02T06:45:36.846Z,47.47
2018-03-02T06:48:04.959Z,51.17
2018-03-02T06:50:33.100Z,56.90
2018-03-02T06:53:01.207Z,54.87
2018-03-02T06:55:29.357Z,53.87
2018-03-02T06:57:57.468Z,48.97
2018-03-02T07:00:25.594Z,55.33
2018-03-02T07:02:53.746Z,52.23
2018-03-02T07:05:21.867Z,59.60
2018-03-02T07:07:49.971Z,58.70
2018-03-02T07:10:18.107Z,55.77
2018-03-02T07:12:46.215Z,58.17
2018-03-02T07:15:14.341Z,51.10
2018-03-02T07:17:42.455Z,62.10
2018-03-02T07:20:10.597Z,61.27
2018-03-02T07:22:38.710Z,61.40
2018-03-02T07:25:06.843Z,57.83
2018-03-02T07:27:34.979Z,52.10
2018-03-02T07:30:03.117Z,53.13
2018-03-02T07:32:31.235Z,60.87
2018-03-02T07:34:59.353Z,59.87
2018-03-02T07:37:27.508Z,51.13
2018-03-02T07:39:55.629Z,55.30
2018-03-02T07:42:23.749Z,54.23
2018-03-02T07:44:51.867Z,57.67
2018-03-02T07:47:19.967Z,56.37
2018-03-02T07:49:48.114Z,52.93
2018-03-02T07:52:16.211Z,58.03
2018-03-02T07:54:44.341Z,57.17
2018-03-02T07:57:12.453Z,53.87
2018-03-02T07:59:40.558Z,56.00
2018-03-02T08:02:08.685Z,53.87
2018-03-02T08:04:36.806Z,58.30
2018-03-02T08:07:04.938Z,59.17
2018-03-02T08:09:33.043Z,59.50
2018-03-02T08:12:01.177Z,60.93
2018-03-02T08:14:29.289Z,58.93
2018-03-02T08:16:57.417Z,55.43
2018-03-02T08:19:25.561Z,62.03
2018-03-02T08:21:53.673Z,49.83
2018-03-02T08:24:21.778Z,54.83
2018-03-02T08:26:49.903Z,54.30
2018-03-02T08:29:18.033Z,62.13
2018-03-02T08:31:46.164Z,57.17
2018-03-02T08:34:14.278Z,58.37
2018-03-02T08:36:42.404Z,62.03
2018-03-02T08:39:10.515Z,60.03
2018-03-02T08:41:38.650Z,57.53
2018-03-02T08:44:06.757Z,59.70
2018-03-02T08:46:34.865Z,61.43
2018-03-02T08:49:03.038Z,61.20
2018-03-02T08:51:31.175Z,58.30
2018-03-02T08:53:59.284Z,62.03
2018-03-02T08:56:27.409Z,60.93
2018-03-02T08:58:55.529Z,59.63
2018-03-02T09:01:23.649Z,62.40
2018-03-02T09:03:51.764Z,59.47
2018-03-02T09:06:19.871Z,61.57
2018-03-02T09:08:47.998Z,59.43
2018-03-02T09:11:16.146Z,57.27
2018-03-02T09:13:44.239Z,57.13
2018-03-02T09:16:12.381Z,58.03
2018-03-02T09:18:40.493Z,65.10
2018-03-02T09:21:08.618Z,61.03
2018-03-02T09:23:36.752Z,62.67
2018-03-02T09:26:05.129Z,60.77
2018-03-02T09:28:33.259Z,59.17
2018-03-02T09:31:01.386Z,56.97
2018-03-02T09:33:29.501Z,61.53
2018-03-02T09:35:57.620Z,66.97
2018-03-02T09:38:25.748Z,59.00
2018-03-02T09:40:54.210Z,56.07
2018-03-02T09:43:22.316Z,58.23
2018-03-02T09:45:50.436Z,61.50
2018-03-02T09:48:18.585Z,64.10
2018-03-02T09:50:46.689Z,62.47
2018-03-02T09:53:14.843Z,52.53
2018-03-02T09:55:42.963Z,54.47
2018-03-02T09:58:11.391Z,63.43
2018-03-02T10:00:45.833Z,55.60
2018-03-02T10:03:13.955Z,60.07
2018-03-02T10:05:42.054Z,62.13
2018-03-02T10:08:10.208Z,64.47
2018-03-02T10:10:38.328Z,57.17
2018-03-02T10:13:06.436Z,65.03
2018-03-02T10:15:34.560Z,65.17
2018-03-02T10:18:02.668Z,57.63
2018-03-02T10:20:30.773Z,62.47
2018-03-02T10:22:59.787Z,61.33
2018-03-02T10:25:27.899Z,63.17
2018-03-02T10:27:56.033Z,65.20
2018-03-02T10:30:24.155Z,61.60
2018-03-02T10:32:52.277Z,61.63
2018-03-02T10:35:20.431Z,60.00
2018-03-02T10:37:48.550Z,56.23
2018-03-02T10:40:16.677Z,62.03
2018-03-02T10:42:44.820Z,57.30
2018-03-02T10:45:12.941Z,60.80
2018-03-02T10:47:41.069Z,64.37
2018-03-02T10:50:09.187Z,60.10
2018-03-02T10:52:37.316Z,59.27
2018-03-02T10:55:05.432Z,58.07
2018-03-02T10:57:33.629Z,60.43
2018-03-02T11:00:01.736Z,66.27
2018-03-02T11:02:29.845Z,63.50
2018-03-02T11:05:03.536Z,62.27
2018-03-02T11:07:31.635Z,56.13
2018-03-02T11:09:59.738Z,59.33
2018-03-02T11:12:31.092Z,63.67
2018-03-02T11:14:59.219Z,58.77
2018-03-02T11:17:27.345Z,64.77
2018-03-02T11:19:55.448Z,61.03
2018-03-02T11:22:23.555Z,64.73
2018-03-02T11:24:51.683Z,61.30
2018-03-02T11:27:19.794Z,65.57
2018-03-02T11:29:47.890Z,56.97
2018-03-02T11:32:16.055Z,60.27
2018-03-02T11:34:44.205Z,58.97
2018-03-02T11:37:12.309Z,63.87
2018-03-02T11:39:40.469Z,60.60
2018-03-02T11:42:08.571Z,57.27
2018-03-02T11:44:36.672Z,64.73
2018-03-02T11:47:04.846Z,61.40
2018-03-02T11:49:32.901Z,58.70
2018-03-02T11:52:01.020Z,59.70
2018-03-02T11:54:29.188Z,57.77
2018-03-02T11:56:57.286Z,60.77
2018-03-02T11:59:27.376Z,68.03
2018-03-02T12:01:55.498Z,54.67
2018-03-02T12:04:23.604Z,61.13
2018-03-02T12:06:51.734Z,58.80
2018-03-02T12:09:19.861Z,57.50
2018-03-02T12:11:47.969Z,60.17
2018-03-02T12:14:16.088Z,59.97
2018-03-02T12:16:44.288Z,63.87
2018-03-02T12:19:12.419Z,60.33
2018-03-02T12:21:40.555Z,58.63
2018-03-02T12:24:08.660Z,61.17
2018-03-02T12:26:36.801Z,57.63
2018-03-02T12:29:04.920Z,60.27
2018-03-02T12:31:33.019Z,56.17
2018-03-02T12:34:01.136Z,60.07
2018-03-02T12:36:32.758Z,58.83
2018-03-02T12:39:00.891Z,60.80
2018-03-02T12:41:28.988Z,59.83
2018-03-02T12:43:57.124Z,57.17
2018-03-02T12:46:26.160Z,63.17
2018-03-02T12:48:54.264Z,55.73
2018-03-02T12:51:22.386Z,64.63
2018-03-02T12:53:50.629Z,62.73
2018-03-02T12:56:19.455Z,60.23
2018-03-02T12:58:47.590Z,59.40
2018-03-02T13:01:15.708Z,62.40
2018-03-02T13:03:43.893Z,53.83
2018-03-02T13:06:12.000Z,56.23
2018-03-02T13:08:40.136Z,62.17
2018-03-02T13:11:08.265Z,57.23
2018-03-02T13:13:36.379Z,57.77
2018-03-02T13:16:04.501Z,59.67
2018-03-02T13:18:42.480Z,56.97
2018-03-02T13:21:10.605Z,56.43
2018-03-02T13:23:38.719Z,60.37
2018-03-02T13:26:06.858Z,58.90
2018-03-02T13:28:46.784Z,62.03
2018-03-02T13:31:14.909Z,60.27
2018-03-02T13:33:54.913Z,58.23
2018-03-02T13:36:23.035Z,58.03
2018-03-02T13:38:51.154Z,59.47
2018-03-02T13:41:31.157Z,62.80
2018-03-02T13:44:02.505Z,58.13
2018-03-02T13:46:30.646Z,60.90
2018-03-02T13:49:10.533Z,54.93
2018-03-02T13:51:38.661Z,56.23
2018-03-02T13:54:06.787Z,58.53
2018-03-02T13:56:46.724Z,58.90
2018-03-02T13:59:14.849Z,54.00
2018-03-02T14:01:42.968Z,54.83
2018-03-02T14:04:23.103Z,59.10
2018-03-02T14:06:51.222Z,55.47
2018-03-02T14:09:19.354Z,56.83
2018-03-02T14:11:47.525Z,57.27
2018-03-02T14:14:15.647Z,57.30
2018-03-02T14:16:47.396Z,54.93
2018-03-02T14:19:15.534Z,54.13
2018-03-02T14:21:43.667Z,63.00
2018-03-02T14:24:11.786Z,53.73
2018-03-02T14:26:39.901Z,58.20
2018-03-02T14:29:08.149Z,65.70
2018-03-02T14:31:37.127Z,58.67
2018-03-02T14:34:05.308Z,59.10
2018-03-02T14:36:33.372Z,60.27
2018-03-02T14:39:01.500Z,53.93
2018-03-02T14:41:29.603Z,56.20
2018-03-02T14:43:57.722Z,56.87
2018-03-02T14:46:25.865Z,62.87
2018-03-02T14:48:53.994Z,56.73
2018-03-02T14:51:22.117Z,57.23
2018-03-02T14:53:50.254Z,60.10
2018-03-02T14:56:18.374Z,54.13
2018-03-02T14:58:46.496Z,57.10
2018-03-02T15:01:14.615Z,60.30
2018-03-02T15:03:42.710Z,59.27
2018-03-02T15:06:14.557Z,59.63
2018-03-02T15:08:42.700Z,59.67
2018-03-02T15:11:10.946Z,60.50
2018-03-02T15:13:39.083Z,56.73
2018-03-02T15:16:07.213Z,55.47
2018-03-02T15:18:35.319Z,54.87
2018-03-02T15:21:03.477Z,57.93
2018-03-02T15:23:31.875Z,55.30
2018-03-02T15:26:00.009Z,55.90
2018-03-02T15:28:28.149Z,57.00
2018-03-02T15:30:56.283Z,60.67
2018-03-02T15:33:24.387Z,60.43
2018-03-02T15:35:52.562Z,57.07
2018-03-02T15:38:20.674Z,55.73
2018-03-02T15:40:48.863Z,59.50
2018-03-02T15:43:17.009Z,57.77
2018-03-02T15:45:45.132Z,54.17
2018-03-02T15:48:13.259Z,60.37
2018-03-02T15:50:41.405Z,61.73
2018-03-02T15:53:09.531Z,56.63
2018-03-02T15:55:37.623Z,60.07
2018-03-02T15:58:05.744Z,60.50
2018-03-02T16:00:33.852Z,54.73
2018-03-02T16:03:01.983Z,53.83
2018-03-02T16:05:30.108Z,55.57
2018-03-02T16:07:58.226Z,56.13
2018-03-02T16:10:26.336Z,52.77
2018-03-02T16:12:54.471Z,56.67
2018-03-02T16:15:22.641Z,60.63
2018-03-02T16:17:50.772Z,56.00
2018-03-02T16:20:18.933Z,54.73
2018-03-02T16:22:47.040Z,57.33
2018-03-02T16:25:15.152Z,54.47
2018-03-02T16:27:43.272Z,50.90
2018-03-02T16:30:11.433Z,64.17
2018-03-02T16:32:39.574Z,54.37
2018-03-02T16:35:07.673Z,56.83
2018-03-02T16:37:36.379Z,57.63
2018-03-02T16:40:04.558Z,58.87
2018-03-02T16:42:32.681Z,55.03
2018-03-02T16:45:00.814Z,55.57
2018-03-02T16:47:28.973Z,58.60
2018-03-02T16:49:57.103Z,58.73
2018-03-02T16:52:25.235Z,57.70
2018-03-02T16:54:53.366Z,55.70
2018-03-02T16:57:21.560Z,54.70
2018-03-02T16:59:49.655Z,57.47
2018-03-02T17:02:17.896Z,65.60
2018-03-02T17:04:46.023Z,58.20
2018-03-02T17:07:14.177Z,62.50
2018-03-02T17:09:42.279Z,60.53
2018-03-02T17:12:10.425Z,68.87
2018-03-02T17:14:38.565Z,59.60
2018-03-02T17:17:09.705Z,59.73
2018-03-02T17:19:37.828Z,59.27
2018-03-02T17:22:06.030Z,63.27
2018-03-02T17:24:34.151Z,64.80
2018-03-02T17:27:02.393Z,60.13
2018-03-02T17:29:30.530Z,63.17
2018-03-02T17:31:58.610Z,59.63
2018-03-02T17:34:26.757Z,61.00
2018-03-02T17:36:54.860Z,67.30
2018-03-02T17:39:22.982Z,64.47
2018-03-02T17:41:51.116Z,62.77
2018-03-02T17:44:19.207Z,65.80
2018-03-02T17:46:47.323Z,67.63
2018-03-02T17:49:15.428Z,58.53
2018-03-02T17:51:43.553Z,61.53
2018-03-02T17:54:11.684Z,61.13
2018-03-02T17:56:39.841Z,58.90
2018-03-02T17:59:07.962Z,66.10
2018-03-02T18:01:36.078Z,67.53
2018-03-02T18:04:04.205Z,63.10
2018-03-02T18:06:32.330Z,66.90
2018-03-02T18:09:00.449Z,65.50
2018-03-02T18:11:28.584Z,62.57
2018-03-02T18:13:56.705Z,66.57
2018-03-02T18:16:24.817Z,63.83
2018-03-02T18:18:52.912Z,63.00
2018-03-02T18:21:21.047Z,65.07
2018-03-02T18:23:49.177Z,74.60
2018-03-02T18:26:17.434Z,62.00
2018-03-02T18:28:45.536Z,68.07
2018-03-02T18:31:13.653Z,70.23
2018-03-02T18:33:41.797Z,61.30
2018-03-02T18:36:09.925Z,68.70
2018-03-02T18:38:38.030Z,72.43
2018-03-02T18:41:06.205Z,69.53
2018-03-02T18:43:34.322Z,71.93
2018-03-02T18:46:02.450Z,74.83
2018-03-02T18:48:30.573Z,75.53
2018-03-02T18:50:58.682Z,65.67
2018-03-02T18:53:26.792Z,71.73
2018-03-02T18:55:54.896Z,71.87
2018-03-02T18:58:23.013Z,72.53
2018-03-02T19:00:51.159Z,66.80
2018-03-02T19:03:19.266Z,72.93
2018-03-02T19:05:47.383Z,73.67
2018-03-02T19:08:15.515Z,78.37
2018-03-02T19:10:43.681Z,73.27
2018-03-02T19:13:11.839Z,75.10
2018-03-02T19:15:39.969Z,69.33
2018-03-02T19:18:08.086Z,77.20
2018-03-02T19:20:36.198Z,76.60
2018-03-02T19:23:04.316Z,71.73
2018-03-02T19:25:32.491Z,71.73
2018-03-02T19:28:00.587Z,72.30
2018-03-02T19:30:28.729Z,68.13
2018-03-02T19:32:56.835Z,73.17
2018-03-02T19:35:24.928Z,71.10
2018-03-02T19:37:53.063Z,86.27
2018-03-02T19:40:21.178Z,71.40
2018-03-02T19:42:49.291Z,71.77
2018-03-02T19:45:17.438Z,71.67
2018-03-02T19:47:45.562Z,67.13
2018-03-02T19:50:13.762Z,70.37
2018-03-02T19:52:42.817Z,71.00
2018-03-02T19:55:10.920Z,70.83
2018-03-02T19:57:39.035Z,75.07
2018-03-02T20:00:07.177Z,65.87
2018-03-02T20:02:35.307Z,68.27
2018-03-02T20:05:03.413Z,75.60
2018-03-02T20:07:31.547Z,69.40
2018-03-02T20:09:59.652Z,67.20
2018-03-02T20:12:27.778Z,67.53
2018-03-02T20:14:55.905Z,64.87
2018-03-02T20:17:24.022Z,68.83
2018-03-02T20:19:52.165Z,71.50
2018-03-02T20:22:20.260Z,74.03
2018-03-02T20:24:48.362Z,66.80
2018-03-02T20:27:16.485Z,70.93
2018-03-02T20:29:44.592Z,63.83
2018-03-02T20:32:12.736Z,69.83
2018-03-02T20:34:40.858Z,71.63
2018-03-02T20:37:08.967Z,68.00
2018-03-02T20:39:37.082Z,69.90
2018-03-02T20:42:05.265Z,68.80
2018-03-02T20:44:33.408Z,78.17
2018-03-02T20:47:01.535Z,69.23
2018-03-02T20:49:29.690Z,64.40
2018-03-02T20:51:57.791Z,65.93
2018-03-02T20:54:25.906Z,70.63
2018-03-02T20:56:54.041Z,69.77
2018-03-02T20:59:22.145Z,66.03
2018-03-02T21:01:50.251Z,68.73
2018-03-02T21:04:18.365Z,74.97
2018-03-02T21:06:46.480Z,72.47
2018-03-02T21:09:14.596Z,73.13
2018-03-02T21:11:42.729Z,73.80
2018-03-02T21:14:10.846Z,73.67
2018-03-02T21:16:38.967Z,74.50
2018-03-02T21:19:07.084Z,70.67
2018-03-02T21:21:35.203Z,69.37
2018-03-02T21:24:03.326Z,74.23
2018-03-02T21:26:31.782Z,76.63
2018-03-02T21:28:59.902Z,77.13
2018-03-02T21:31:28.030Z,73.07
2018-03-02T21:33:56.127Z,73.67
2018-03-02T21:36:24.231Z,77.93
2018-03-02T21:38:52.344Z,72.83
2018-03-02T21:41:20.491Z,78.13
2018-03-02T21:43:48.769Z,80.17
2018-03-02T21:46:17.056Z,84.17
2018-03-02T21:48:45.175Z,83.30
2018-03-02T21:51:13.299Z,82.23
2018-03-02T21:53:41.414Z,79.43
2018-03-02T21:56:09.533Z,88.70
2018-03-02T21:58:37.636Z,95.50
2018-03-02T22:01:05.748Z,81.63
2018-03-02T22:03:33.844Z,84.50
2018-03-02T22:06:01.959Z,87.37
2018-03-02T22:08:30.151Z,86.33
2018-03-02T22:10:58.243Z,86.53
2018-03-02T22:13:26.373Z,92.77
2018-03-02T22:15:54.493Z,86.13
2018-03-02T22:18:26.226Z,87.20
2018-03-02T22:20:54.727Z,86.97
2018-03-02T22:23:22.853Z,98.72
2018-03-02T22:25:50.997Z,92.83
2018-03-02T22:28:19.130Z,92.93
2018-03-02T22:30:47.230Z,90.73
2018-03-02T22:33:15.341Z,83.30
2018-03-02T22:35:43.573Z,91.70
2018-03-02T22:38:11.703Z,90.93
2018-03-02T22:40:39.831Z,97.00
2018-03-02T22:43:07.961Z,86.27
2018-03-02T22:45:36.083Z,91.60
2018-03-02T22:48:04.220Z,95.70
2018-03-02T22:50:32.339Z,93.93
2018-03-02T22:53:00.486Z,101.30
2018-03-02T22:55:28.605Z,98.13
2018-03-02T22:57:56.752Z,102.23
2018-03-02T23:00:24.874Z,94.20
2018-03-02T23:02:52.995Z,101.23
2018-03-02T23:05:21.129Z,96.60
2018-03-02T23:07:49.274Z,105.57
2018-03-02T23:10:17.388Z,94.13
2018-03-02T23:12:45.503Z,99.00
2018-03-02T23:15:13.610Z,99.30
2018-03-02T23:17:41.737Z,99.87
2018-03-02T23:20:09.854Z,102.43
2018-03-02T23:22:37.967Z,99.87
2018-03-02T23:25:06.124Z,103.03
2018-03-02T23:27:34.273Z,98.30
2018-03-02T23:30:02.344Z,100.13
2018-03-02T23:32:30.487Z,102.20
2018-03-02T23:34:58.617Z,106.63
2018-03-02T23:37:26.742Z,100.87
2018-03-02T23:39:54.858Z,104.33
2018-03-02T23:42:22.979Z,99.47
2018-03-02T23:44:51.117Z,97.97
2018-03-02T23:47:19.229Z,101.33
2018-03-02T23:49:47.338Z,102.13
2018-03-02T23:52:15.455Z,100.10
2018-03-02T23:54:43.561Z,105.47
2018-03-02T23:57:11.726Z,99.53
2018-03-02T23:59:39.836Z,99.33
